createdAt,value
2019-05-16T00:03:18.541Z,67.4
2019-05-16T00:08:17.811Z,67.9
2019-05-16T00:13:18.447Z,68
2019-05-16T00:18:17.793Z,67.9
2019-05-16T00:23:18.206Z,68.5
2019-05-16T00:28:17.990Z,68.6
2019-05-16T00:33:18.455Z,68.8
2019-05-16T00:38:18.395Z,69.2
2019-05-16T00:43:18.565Z,69.2
2019-05-16T00:48:19.261Z,69.4
2019-05-16T00:53:18.978Z,69.7
2019-05-16T00:58:20.283Z,69.9
2019-05-16T01:03:21.074Z,70
2019-05-16T01:08:19.744Z,70.1
2019-05-16T01:13:19.621Z,70
2019-05-16T01:18:19.550Z,70.7
2019-05-16T01:23:19.724Z,70.7
2019-05-16T01:28:19.579Z,71.2
2019-05-16T01:33:19.596Z,71.2
2019-05-16T01:38:19.618Z,71.4
2019-05-16T01:43:19.811Z,71.6
2019-05-16T01:48:19.594Z,71.9
2019-05-16T01:53:19.612Z,72.2
2019-05-16T01:58:20.344Z,72.4
2019-05-16T02:03:19.561Z,72.6
2019-05-16T02:08:19.617Z,72.9
2019-05-16T02:13:19.630Z,73.2
2019-05-16T02:18:19.609Z,73.6
2019-05-16T02:23:19.673Z,73.7
2019-05-16T02:28:23.049Z,74
2019-05-16T02:33:21.217Z,74.1
2019-05-16T02:38:21.074Z,74.5
2019-05-16T02:43:21.754Z,74.4
2019-05-16T02:48:21.245Z,74.7
2019-05-16T02:53:22.194Z,74.7
2019-05-16T02:58:23.202Z,74.4
2019-05-16T03:03:21.254Z,74.6
2019-05-16T03:08:21.108Z,74.2
2019-05-16T03:13:21.947Z,74
2019-05-16T03:18:21.374Z,74.3
2019-05-16T03:23:21.734Z,74.3
2019-05-16T03:28:22.099Z,74.3
2019-05-16T03:33:30.395Z,74.7
2019-05-16T03:38:21.370Z,75
2019-05-16T03:43:21.720Z,75.2
2019-05-16T03:48:21.414Z,75.2
2019-05-16T03:53:21.470Z,74.7
2019-05-16T03:58:22.403Z,75.3
2019-05-16T04:09:22.457Z,75.5
2019-05-16T04:14:26.821Z,75.4
2019-05-16T04:19:26.796Z,75.7
2019-05-16T04:24:31.407Z,76.4
2019-05-16T04:29:27.184Z,76.9
2019-05-16T04:34:27.597Z,77
2019-05-16T04:39:27.295Z,77.3
2019-05-16T04:44:30.931Z,77.2
2019-05-16T04:49:40.953Z,77.3
2019-05-16T04:54:41.469Z,77.5
2019-05-16T04:59:37.510Z,77.8
2019-05-16T05:04:37.467Z,77.9
2019-05-16T05:09:40.568Z,78.2
2019-05-16T05:14:37.994Z,77.5
2019-05-16T05:20:09.883Z,76.8
2019-05-16T05:25:07.564Z,76.5
2019-05-16T05:30:07.585Z,76.3
2019-05-16T05:35:10.639Z,76.5
2019-05-16T05:40:10.642Z,76.2
2019-05-16T05:45:11.039Z,76.1
2019-05-16T05:50:11.094Z,76.2
2019-05-16T05:55:10.624Z,75.8
2019-05-16T06:00:10.155Z,75.6
2019-05-16T06:05:10.738Z,75.8
2019-05-16T06:10:10.705Z,75.5
2019-05-16T06:15:12.704Z,75.3
2019-05-16T06:20:14.372Z,74.4
2019-05-16T06:25:13.040Z,73.1
2019-05-16T06:30:11.302Z,71.3
2019-05-16T06:35:10.670Z,70.4
2019-05-16T06:40:11.064Z,69.6
2019-05-16T06:45:10.758Z,69.6
2019-05-16T06:50:11.316Z,69.7
2019-05-16T06:55:10.974Z,69.7
2019-05-16T11:20:57.977Z,43.1
2019-05-16T11:40:02.017Z,42.3
2019-05-16T11:45:08.568Z,41.4
2019-05-16T11:50:17.522Z,40.7
2019-05-16T11:55:16.321Z,39.9
2019-05-16T14:10:53.069Z,41.4
2019-05-16T14:15:53.669Z,42
2019-05-16T14:30:57.181Z,43.3
2019-05-16T14:35:58.414Z,43.7
2019-05-16T14:41:03.021Z,44.9
2019-05-16T14:51:20.907Z,46
2019-05-16T14:56:22.654Z,46.3
2019-05-16T15:01:26.733Z,47.7
2019-05-16T15:06:37.477Z,48.5
2019-05-16T15:11:47.046Z,48.7
2019-05-16T15:16:57.415Z,48.8
2019-05-16T15:23:28.357Z,49.9
2019-05-16T15:28:51.397Z,50.2
2019-05-16T15:33:57.221Z,50.1
2019-05-16T15:39:54.241Z,50.3
2019-05-16T15:45:53.090Z,49.8
2019-05-16T15:51:12.049Z,49.8
2019-05-16T15:56:37.241Z,49.7
2019-05-16T16:01:41.910Z,49.5
2019-05-16T16:06:48.066Z,50.8
2019-05-16T16:12:30.195Z,51.9
2019-05-16T16:17:57.367Z,53.1
2019-05-16T16:27:34.443Z,53.9
2019-05-16T16:32:40.173Z,53.1
2019-05-16T16:44:20.022Z,53
2019-05-16T17:05:39.467Z,54.4
2019-05-16T17:17:11.626Z,55.1
2019-05-16T17:22:17.334Z,55.6
2019-05-16T17:27:14.347Z,55.4
2019-05-16T17:32:34.767Z,55.3
2019-05-16T18:10:27.932Z,55.9
2019-05-16T18:42:04.445Z,57.6
2019-05-16T18:47:11.438Z,58.1
2019-05-16T18:52:09.060Z,57.7
2019-05-16T18:57:09.038Z,58
2019-05-16T19:02:15.291Z,58.5
2019-05-16T19:07:47.496Z,58.4
2019-05-16T19:12:59.733Z,58.6
2019-05-16T19:17:58.637Z,58.6
2019-05-16T19:22:59.026Z,58.8
2019-05-16T19:33:26.343Z,60
2019-05-16T19:38:29.248Z,60
2019-05-16T19:43:29.360Z,60.5
2019-05-16T19:48:28.772Z,60.5
2019-05-16T19:53:28.980Z,61
2019-05-16T19:58:31.071Z,61.7
2019-05-16T20:03:29.636Z,62
2019-05-16T20:08:29.674Z,62.1
2019-05-16T20:13:38.083Z,62.7
2019-05-16T20:18:38.168Z,62.9
2019-05-16T20:23:39.630Z,63.1
2019-05-16T20:28:39.609Z,63.4
2019-05-16T20:33:39.857Z,63.6
2019-05-16T20:38:40.240Z,64.1
2019-05-16T20:43:41.057Z,64.6
2019-05-16T20:48:41.428Z,64.8
2019-05-16T20:53:41.993Z,65.3
2019-05-16T20:59:12.299Z,65.5
2019-05-16T21:04:33.349Z,66.2
2019-05-16T21:10:01.088Z,66.6
2019-05-16T21:20:35.424Z,66.6
2019-05-16T21:25:40.977Z,66.7
2019-05-16T21:30:41.449Z,67
2019-05-16T21:35:41.846Z,67
2019-05-16T21:40:42.984Z,67.1
2019-05-16T21:45:47.379Z,67.3
2019-05-16T21:50:46.415Z,67.3
2019-05-16T21:55:47.170Z,67.7
2019-05-16T22:00:47.402Z,68
2019-05-16T22:05:46.463Z,68.5
2019-05-16T22:10:46.659Z,69.4
2019-05-16T22:15:46.462Z,70.5
2019-05-16T22:20:47.099Z,71.5
2019-05-16T22:25:49.151Z,72.8
2019-05-16T22:30:46.936Z,73.4
2019-05-16T22:36:17.149Z,74.3
2019-05-16T22:42:27.097Z,74.9
2019-05-16T22:47:27.949Z,75.1
2019-05-16T22:52:26.963Z,75.2
2019-05-16T22:57:28.242Z,75.5
2019-05-16T23:02:27.394Z,75.8
2019-05-16T23:07:27.517Z,76.6
2019-05-16T23:12:26.951Z,77.2
2019-05-16T23:17:37.464Z,77.7
2019-05-16T23:22:42.043Z,78.3
2019-05-16T23:27:51.021Z,78.4
2019-05-16T23:32:56.968Z,78.5
2019-05-16T23:38:19.191Z,78.7
2019-05-16T23:43:13.758Z,79.1
2019-05-16T23:48:19.508Z,79.2
2019-05-16T23:53:13.502Z,79.3
2019-05-16T23:58:13.459Z,79.8
